Norton, Virginia
Current Conditions -  °F | °C
As of 10:35 AM on Friday 28 Nov 2014 (Local Time) from KLNP Reporting Station
Overcast Overcast  
Wind Chill: 27°   Ceiling: 1500
Heat Index: 27°   Visibility: 10mi
Dew Point: 18°   Wind: 3mph
Humidity: 69%   Direction: 210°SSW
Pressure: 30.32"   Gusts: NA
Location:  36.93°N, 82.63°W
Report Text: KLNP 281535Z AUTO 21003KT 10SM OVC015 M03/M08 A3032 RMK AO2
Loading
Personal Weather Stations






























Interactive Weather Map New forecast layout! Learn more

10-Day Weather Forecast

Advertisements
Track Severe Weather on mobile